Time;durP1;ratioP1;P1;durP2;ratioP2;P2;SDS_P1;SDS_P2;PMS_P1;PMS_P2;Temp;Humidity;BMP_temperature;BMP_pressure;BME280_temperature;BME280_humidity;BME280_pressure;Samples;Min_cycle;Max_cycle;Signal;HPM_P1;HPM_P2
2022/06/20 00:00:27;;;;;;;3.33;2.67;;;;;;;;;;5024961;28;20189;-58
2022/06/20 00:02:54;;;;;;;3.10;2.20;;;;;;;;;;5028071;28;20334;-59
2022/06/20 00:05:21;;;;;;;2.93;2.43;;;;;;;;;;5024861;28;20855;-58
2022/06/20 00:07:47;;;;;;;7.53;2.43;;;;;;;;;;5024922;28;20260;-59
2022/06/20 00:10:14;;;;;;;6.43;2.67;;;;;;;;;;5022150;28;20204;-58
2022/06/20 00:12:40;;;;;;;4.57;2.73;;;;;;;;;;5026421;28;20189;-59
2022/06/20 00:15:06;;;;;;;4.30;2.53;;;;;;;;;;5014844;28;20249;-58
2022/06/20 00:17:32;;;;;;;3.97;2.93;;;;;;;;;;5025476;28;20665;-58
2022/06/20 00:19:58;;;;;;;3.73;2.53;;;;;;;;;;5024603;28;20203;-58
2022/06/20 00:22:24;;;;;;;4.17;3.10;;;;;;;;;;5025365;28;20216;-58
2022/06/20 00:24:51;;;;;;;3.40;2.53;;;;;;;;;;5024531;28;20313;-58
2022/06/20 00:27:17;;;;;;;3.07;2.60;;;;;;;;;;5023997;28;20208;-58
2022/06/20 00:29:43;;;;;;;2.63;2.30;;;;;;;;;;5025757;28;20222;-58
2022/06/20 00:32:09;;;;;;;5.67;2.80;;;;;;;;;;5027908;28;20672;-58
2022/06/20 00:34:35;;;;;;;3.67;2.73;;;;;;;;;;5024408;28;20200;-59
2022/06/20 00:37:01;;;;;;;4.40;2.50;;;;;;;;;;5011969;28;20658;-58
2022/06/20 00:39:27;;;;;;;3.10;2.63;;;;;;;;;;5022098;28;20655;-59
2022/06/20 00:41:53;;;;;;;2.47;2.20;;;;;;;;;;5019530;28;20318;-58
2022/06/20 00:44:25;;;;;;;5.87;2.20;;;;;;;;;;5025665;28;20188;-59
2022/06/20 00:46:52;;;;;;;3.67;2.40;;;;;;;;;;5032534;28;20188;-59
2022/06/20 00:49:21;;;;;;;5.30;2.73;;;;;;;;;;5025522;28;20264;-58
2022/06/20 00:51:48;;;;;;;2.30;2.10;;;;;;;;;;5025408;28;20188;-58
2022/06/20 00:54:44;;;;;;;2.60;2.40;;;;;;;;;;5027901;28;20187;-58
2022/06/20 00:57:16;;;;;;;3.00;2.53;;;;;;;;;;5018680;28;20321;-59
2022/06/20 00:59:45;;;;;;;2.47;2.27;;;;;;;;;;5024411;28;22895;-59
2022/06/20 01:02:11;;;;;;;3.43;2.60;;;;;;;;;;5025355;28;20758;-58
2022/06/20 01:04:39;;;;;;;2.30;2.10;;;;;;;;;;5020420;28;20199;-58
2022/06/20 01:07:09;;;;;;;3.50;2.40;;;;;;;;;;5016379;28;20218;-58
2022/06/20 01:09:36;;;;;;;3.07;2.30;;;;;;;;;;5020807;28;20176;-59
2022/06/20 01:12:02;;;;;;;3.57;2.47;;;;;;;;;;5015984;28;20633;-58
2022/06/20 01:14:34;;;;;;;4.07;2.43;;;;;;;;;;5024122;28;20192;-57
2022/06/20 01:17:00;;;;;;;3.63;2.63;;;;;;;;;;5021661;28;20295;-57
2022/06/20 01:19:33;;;;;;;3.50;2.83;;;;;;;;;;5027257;28;20181;-56
2022/06/20 01:22:00;;;;;;;5.67;3.00;;;;;;;;;;5029360;28;20189;-56
2022/06/20 01:24:27;;;;;;;4.33;3.00;;;;;;;;;;5029989;28;20617;-57
2022/06/20 01:27:12;;;;;;;3.83;2.90;;;;;;;;;;5022921;28;20184;-58
2022/06/20 01:29:38;;;;;;;4.27;3.10;;;;;;;;;;5025187;28;20548;-57
2022/06/20 01:32:04;;;;;;;3.63;3.13;;;;;;;;;;5018346;28;20184;-56
2022/06/20 01:34:30;;;;;;;6.43;3.63;;;;;;;;;;5020187;28;20202;-57
2022/06/20 01:39:42;;;;;;;5.43;3.00;;;;;;;;;;5015188;28;20271;-57
2022/06/20 01:42:21;;;;;;;9.60;3.67;;;;;;;;;;5021433;28;20694;-58
2022/06/20 01:44:51;;;;;;;4.10;2.80;;;;;;;;;;5026129;28;20188;-57
2022/06/20 01:47:19;;;;;;;4.87;3.43;;;;;;;;;;5024286;28;20714;-57
2022/06/20 01:49:46;;;;;;;3.47;3.17;;;;;;;;;;5017604;28;20192;-57
2022/06/20 01:52:14;;;;;;;5.27;3.57;;;;;;;;;;5021050;28;20199;-56
2022/06/20 01:54:41;;;;;;;6.13;3.37;;;;;;;;;;5028224;28;20696;-57
2022/06/20 01:57:07;;;;;;;7.83;3.90;;;;;;;;;;5024512;28;20196;-55
2022/06/20 01:59:38;;;;;;;4.80;3.37;;;;;;;;;;5026736;28;20658;-57
2022/06/20 02:02:04;;;;;;;6.20;3.40;;;;;;;;;;5022495;28;20228;-56
2022/06/20 02:04:31;;;;;;;5.30;3.37;;;;;;;;;;5018272;28;20555;-57
2022/06/20 02:06:57;;;;;;;3.67;3.17;;;;;;;;;;5016555;28;20192;-56
2022/06/20 02:09:23;;;;;;;6.57;3.73;;;;;;;;;;5029632;28;20587;-56
2022/06/20 02:11:49;;;;;;;4.83;4.10;;;;;;;;;;5022793;28;20196;-56
2022/06/20 02:14:24;;;;;;;6.83;4.00;;;;;;;;;;5016583;28;20193;-57
2022/06/20 02:16:52;;;;;;;6.17;3.67;;;;;;;;;;5018631;28;20223;-56
2022/06/20 02:19:19;;;;;;;5.40;4.27;;;;;;;;;;5016629;28;20680;-56
2022/06/20 02:21:45;;;;;;;4.07;3.67;;;;;;;;;;5022853;28;20669;-57
2022/06/20 02:24:13;;;;;;;5.90;4.47;;;;;;;;;;5018407;28;20691;-56
2022/06/20 02:26:39;;;;;;;4.57;4.17;;;;;;;;;;5022114;28;20203;-57
2022/06/20 02:29:24;;;;;;;5.63;3.70;;;;;;;;;;5017010;28;20240;-57
2022/06/20 02:32:07;;;;;;;4.90;4.10;;;;;;;;;;5020839;28;20192;-57
2022/06/20 02:34:33;;;;;;;6.07;4.00;;;;;;;;;;5019046;28;21316;-58
2022/06/20 02:37:02;;;;;;;5.50;3.70;;;;;;;;;;5026366;28;20191;-57
2022/06/20 02:39:28;;;;;;;5.10;3.77;;;;;;;;;;5031681;28;20188;-57
2022/06/20 02:41:55;;;;;;;5.87;4.40;;;;;;;;;;5026512;28;20251;-57
2022/06/20 02:44:22;;;;;;;5.87;4.50;;;;;;;;;;5024385;28;20650;-57
2022/06/20 02:46:48;;;;;;;5.33;4.37;;;;;;;;;;5021624;28;20185;-57
2022/06/20 02:49:15;;;;;;;5.13;4.10;;;;;;;;;;5028017;28;20181;-58
2022/06/20 02:51:42;;;;;;;7.53;4.60;;;;;;;;;;5025921;28;20188;-57
2022/06/20 02:54:08;;;;;;;6.50;4.73;;;;;;;;;;5032403;28;20253;-57
2022/06/20 02:56:38;;;;;;;4.93;4.30;;;;;;;;;;5027463;28;20666;-57
2022/06/20 02:59:06;;;;;;;6.63;4.30;;;;;;;;;;5031947;28;20239;-57
2022/06/20 03:01:44;;;;;;;6.30;3.83;;;;;;;;;;5023461;28;20188;-57
2022/06/20 03:04:10;;;;;;;7.43;4.00;;;;;;;;;;5024677;28;20227;-58
2022/06/20 03:06:45;;;;;;;4.77;4.00;;;;;;;;;;5026260;28;20253;-58
2022/06/20 03:09:16;;;;;;;5.57;3.73;;;;;;;;;;5025311;28;20189;-57
2022/06/20 03:11:41;;;;;;;5.00;3.80;;;;;;;;;;5032022;28;20184;-57
2022/06/20 03:14:13;;;;;;;5.10;3.77;;;;;;;;;;5028555;28;20677;-57
2022/06/20 03:16:39;;;;;;;5.13;4.20;;;;;;;;;;5026580;28;20189;-57
2022/06/20 03:19:05;;;;;;;5.83;4.27;;;;;;;;;;5033536;28;20249;-57
2022/06/20 03:21:35;;;;;;;6.30;4.00;;;;;;;;;;5030723;28;20283;-58
2022/06/20 03:24:05;;;;;;;6.43;3.87;;;;;;;;;;5028988;28;20224;-57
2022/06/20 03:26:31;;;;;;;8.73;4.30;;;;;;;;;;5026456;28;20189;-57
2022/06/20 03:28:57;;;;;;;4.63;3.93;;;;;;;;;;5025923;28;20214;-58
2022/06/20 03:31:23;;;;;;;11.77;4.87;;;;;;;;;;5024281;28;20223;-58
2022/06/20 03:33:49;;;;;;;6.80;4.47;;;;;;;;;;5021405;28;20292;-58
2022/06/20 03:36:16;;;;;;;6.00;4.70;;;;;;;;;;5023169;28;20188;-58
2022/06/20 03:38:43;;;;;;;5.33;4.83;;;;;;;;;;5028252;28;20709;-58
2022/06/20 03:41:09;;;;;;;7.17;4.30;;;;;;;;;;5031133;28;20189;-57
2022/06/20 03:43:35;;;;;;;6.40;4.30;;;;;;;;;;5024835;28;20235;-58
2022/06/20 03:46:02;;;;;;;4.97;4.40;;;;;;;;;;5033483;28;20665;-58
2022/06/20 03:48:40;;;;;;;5.67;4.00;;;;;;;;;;5031686;28;20188;-58
2022/06/20 03:51:07;;;;;;;5.33;3.80;;;;;;;;;;5027976;28;20188;-58
2022/06/20 03:53:37;;;;;;;4.93;3.87;;;;;;;;;;5029164;28;20193;-58
2022/06/20 03:56:11;;;;;;;6.07;4.00;;;;;;;;;;5028851;28;20386;-58
2022/06/20 03:58:45;;;;;;;8.20;4.03;;;;;;;;;;5026759;28;20192;-58
2022/06/20 04:01:19;;;;;;;6.00;4.73;;;;;;;;;;5022586;28;22401;-58
2022/06/20 04:03:46;;;;;;;6.97;4.60;;;;;;;;;;5021505;28;20225;-58
2022/06/20 04:06:14;;;;;;;5.60;4.90;;;;;;;;;;5025862;28;20191;-58
2022/06/20 04:11:44;;;;;;;5.77;4.40;;;;;;;;;;5024495;28;20665;-57
2022/06/20 04:14:13;;;;;;;5.77;4.20;;;;;;;;;;5022527;28;20714;-57
2022/06/20 04:16:47;;;;;;;7.23;4.57;;;;;;;;;;5025251;28;20185;-57
2022/06/20 04:19:16;;;;;;;6.33;4.07;;;;;;;;;;5021589;28;20192;-57
2022/06/20 04:21:50;;;;;;;6.40;4.60;;;;;;;;;;5021738;28;20216;-58
2022/06/20 04:24:24;;;;;;;6.80;4.13;;;;;;;;;;5028628;28;20215;-57
2022/06/20 04:27:00;;;;;;;5.57;4.60;;;;;;;;;;5022440;28;20189;-57
2022/06/20 04:29:42;;;;;;;6.93;4.67;;;;;;;;;;5031475;28;20720;-57
2022/06/20 04:32:19;;;;;;;8.30;4.70;;;;;;;;;;5024909;28;26081;-57
2022/06/20 04:34:48;;;;;;;7.13;4.17;;;;;;;;;;5020300;28;20197;-58
2022/06/20 04:37:32;;;;;;;6.87;4.50;;;;;;;;;;5024687;28;20189;-57
2022/06/20 04:40:27;;;;;;;8.23;4.00;;;;;;;;;;5026147;28;20184;-57
2022/06/20 04:42:53;;;;;;;6.00;3.93;;;;;;;;;;5013287;28;20675;-57
2022/06/20 04:45:21;;;;;;;6.67;4.33;;;;;;;;;;5030173;28;20188;-57
2022/06/20 04:47:47;;;;;;;5.47;3.90;;;;;;;;;;5030536;28;20189;-57
2022/06/20 04:50:24;;;;;;;6.37;4.20;;;;;;;;;;5024884;28;20242;-57
2022/06/20 04:52:51;;;;;;;8.63;3.80;;;;;;;;;;5019389;28;20279;-58
2022/06/20 04:55:17;;;;;;;5.37;4.50;;;;;;;;;;5029182;28;20201;-57
2022/06/20 04:57:43;;;;;;;7.60;4.47;;;;;;;;;;5028856;28;20194;-57
2022/06/20 05:00:21;;;;;;;7.07;5.10;;;;;;;;;;5021651;28;20191;-57
2022/06/20 05:02:47;;;;;;;5.90;4.30;;;;;;;;;;5013782;28;20222;-58
2022/06/20 05:05:18;;;;;;;6.03;4.07;;;;;;;;;;5025177;28;20258;-57
2022/06/20 05:07:45;;;;;;;6.17;4.00;;;;;;;;;;5009811;28;20242;-57
2022/06/20 05:10:11;;;;;;;8.27;4.27;;;;;;;;;;5016374;28;20208;-58
2022/06/20 05:12:43;;;;;;;7.87;4.57;;;;;;;;;;5011613;28;20205;-58
2022/06/20 05:15:42;;;;;;;6.77;4.33;;;;;;;;;;5018709;28;20235;-57
2022/06/20 05:18:17;;;;;;;9.90;4.83;;;;;;;;;;5003201;28;20228;-58
2022/06/20 05:20:43;;;;;;;7.27;4.87;;;;;;;;;;5026900;28;20206;-57
2022/06/20 05:23:12;;;;;;;7.57;4.00;;;;;;;;;;5029193;28;20239;-57
2022/06/20 05:25:38;;;;;;;5.30;3.37;;;;;;;;;;5024371;28;20188;-57
2022/06/20 05:28:10;;;;;;;6.90;3.60;;;;;;;;;;5025184;28;20215;-58
2022/06/20 05:30:37;;;;;;;5.47;3.50;;;;;;;;;;5024976;28;20199;-57
2022/06/20 05:33:22;;;;;;;7.27;4.03;;;;;;;;;;5014794;28;20196;-57
2022/06/20 05:35:51;;;;;;;6.47;3.90;;;;;;;;;;5028249;28;20245;-57
2022/06/20 05:38:25;;;;;;;6.43;3.27;;;;;;;;;;5030202;28;20188;-57
2022/06/20 05:40:52;;;;;;;7.00;3.63;;;;;;;;;;5031963;28;20201;-57
2022/06/20 05:43:21;;;;;;;4.03;3.50;;;;;;;;;;5032058;28;20235;-57
2022/06/20 05:45:48;;;;;;;5.03;3.20;;;;;;;;;;5032663;28;20177;-57
2022/06/20 05:48:14;;;;;;;7.13;3.10;;;;;;;;;;5030750;28;20646;-57
2022/06/20 05:50:42;;;;;;;7.30;3.87;;;;;;;;;;5031217;28;20192;-57
2022/06/20 05:53:11;;;;;;;5.67;2.83;;;;;;;;;;5028789;28;25679;-57
2022/06/20 05:55:41;;;;;;;7.40;3.37;;;;;;;;;;5031049;28;20207;-57
2022/06/20 05:58:08;;;;;;;5.20;3.37;;;;;;;;;;5026861;28;20187;-57
2022/06/20 06:00:34;;;;;;;4.87;3.00;;;;;;;;;;5028650;28;20192;-57
2022/06/20 06:03:03;;;;;;;3.73;2.50;;;;;;;;;;5029606;28;20227;-57
2022/06/20 06:05:39;;;;;;;4.97;3.17;;;;;;;;;;5025699;28;20192;-57
2022/06/20 06:08:11;;;;;;;6.23;3.20;;;;;;;;;;5031280;28;20191;-57
2022/06/20 06:10:44;;;;;;;6.43;3.30;;;;;;;;;;5030561;28;20180;-57
2022/06/20 06:13:11;;;;;;;5.63;3.17;;;;;;;;;;5035673;28;20188;-57
2022/06/20 06:15:37;;;;;;;4.47;2.63;;;;;;;;;;5031737;28;20279;-57
2022/06/20 06:18:04;;;;;;;3.90;3.07;;;;;;;;;;5028989;28;20196;-57
2022/06/20 06:20:31;;;;;;;6.63;3.27;;;;;;;;;;5029480;28;20449;-57
2022/06/20 06:22:59;;;;;;;3.47;2.83;;;;;;;;;;5033251;28;20771;-57
2022/06/20 06:25:25;;;;;;;6.47;3.30;;;;;;;;;;5032246;28;20705;-57
2022/06/20 06:27:52;;;;;;;5.73;2.90;;;;;;;;;;5034252;28;20295;-57
2022/06/20 06:30:25;;;;;;;4.57;3.20;;;;;;;;;;5030784;28;20223;-57
2022/06/20 06:32:51;;;;;;;7.17;2.77;;;;;;;;;;5034518;28;20189;-57
2022/06/20 06:35:20;;;;;;;5.33;3.10;;;;;;;;;;5034186;28;20203;-57
2022/06/20 06:37:54;;;;;;;7.30;3.27;;;;;;;;;;5036332;28;20642;-57
2022/06/20 06:40:25;;;;;;;4.63;3.37;;;;;;;;;;5030346;28;20270;-57
2022/06/20 06:42:55;;;;;;;4.60;3.20;;;;;;;;;;5036132;28;20324;-57
2022/06/20 06:45:23;;;;;;;5.43;3.00;;;;;;;;;;5037487;28;20243;-57
2022/06/20 06:48:09;;;;;;;6.23;3.17;;;;;;;;;;5037418;28;20185;-57
2022/06/20 06:50:41;;;;;;;5.07;3.50;;;;;;;;;;5033106;28;20231;-57
2022/06/20 06:53:13;;;;;;;10.87;3.60;;;;;;;;;;5036714;28;20201;-57
2022/06/20 06:55:40;;;;;;;6.80;3.33;;;;;;;;;;5035549;28;20187;-57
2022/06/20 06:58:08;;;;;;;7.03;3.63;;;;;;;;;;5029328;28;20653;-57
2022/06/20 07:00:38;;;;;;;7.77;3.57;;;;;;;;;;5031676;28;20196;-57
2022/06/20 07:03:06;;;;;;;7.43;4.07;;;;;;;;;;5038268;28;20208;-58
2022/06/20 07:05:34;;;;;;;10.73;3.97;;;;;;;;;;5035045;28;20558;-57
2022/06/20 07:08:11;;;;;;;6.73;3.50;;;;;;;;;;5037448;28;20184;-57
2022/06/20 07:10:38;;;;;;;5.07;3.23;;;;;;;;;;5036902;28;20282;-57
2022/06/20 07:13:07;;;;;;;7.07;3.97;;;;;;;;;;5035088;28;20564;-56
2022/06/20 07:15:33;;;;;;;8.40;3.60;;;;;;;;;;5031815;28;20192;-57
2022/06/20 07:17:59;;;;;;;8.07;3.63;;;;;;;;;;5034125;28;20195;-57
2022/06/20 07:20:27;;;;;;;6.17;3.50;;;;;;;;;;5035417;28;20203;-57
2022/06/20 07:22:53;;;;;;;8.70;3.37;;;;;;;;;;5031955;28;20204;-57
2022/06/20 07:25:27;;;;;;;6.13;3.30;;;;;;;;;;5031068;28;20226;-57
2022/06/20 07:27:57;;;;;;;6.73;3.13;;;;;;;;;;5035057;28;20227;-57
2022/06/20 07:30:24;;;;;;;6.40;3.57;;;;;;;;;;5031630;28;20306;-57
2022/06/20 07:32:59;;;;;;;7.23;3.30;;;;;;;;;;5031037;28;20180;-57
2022/06/20 07:35:30;;;;;;;6.03;3.93;;;;;;;;;;5030680;28;20210;-59
2022/06/20 07:38:13;;;;;;;6.47;3.10;;;;;;;;;;5036236;28;20196;-58
2022/06/20 07:40:59;;;;;;;6.03;2.87;;;;;;;;;;5033314;28;20201;-58
2022/06/20 07:43:29;;;;;;;9.57;3.30;;;;;;;;;;5032933;28;20240;-58
2022/06/20 07:45:55;;;;;;;5.27;3.10;;;;;;;;;;5034518;28;20556;-58
2022/06/20 07:48:22;;;;;;;4.90;2.93;;;;;;;;;;5032746;28;20185;-58
2022/06/20 07:50:50;;;;;;;7.53;3.20;;;;;;;;;;5033794;28;20664;-58
2022/06/20 07:53:18;;;;;;;7.77;3.10;;;;;;;;;;5033038;28;20197;-58
2022/06/20 07:55:45;;;;;;;4.97;2.90;;;;;;;;;;5037993;28;21078;-58
2022/06/20 07:58:13;;;;;;;4.90;2.80;;;;;;;;;;5032634;28;20188;-58
2022/06/20 08:00:41;;;;;;;5.73;2.90;;;;;;;;;;5047997;28;20188;-58
2022/06/20 08:03:08;;;;;;;4.60;2.80;;;;;;;;;;5026078;28;20558;-58
2022/06/20 08:05:36;;;;;;;3.90;2.83;;;;;;;;;;5018707;28;20870;-57
2022/06/20 08:08:08;;;;;;;5.70;2.87;;;;;;;;;;5048929;28;21416;-58
2022/06/20 08:10:35;;;;;;;5.03;2.90;;;;;;;;;;5032542;28;20197;-58
2022/06/20 08:13:04;;;;;;;5.67;2.87;;;;;;;;;;5032265;28;20641;-58
2022/06/20 08:15:32;;;;;;;5.47;2.80;;;;;;;;;;5030271;28;20189;-59
2022/06/20 08:17:58;;;;;;;8.10;3.07;;;;;;;;;;5032811;28;20193;-59
2022/06/20 08:20:25;;;;;;;5.53;2.97;;;;;;;;;;5032005;28;20200;-57
2022/06/20 08:22:53;;;;;;;6.07;2.60;;;;;;;;;;5025772;28;20269;-58
2022/06/20 08:25:21;;;;;;;6.93;3.10;;;;;;;;;;5026680;28;20643;-58
2022/06/20 08:27:50;;;;;;;7.67;3.63;;;;;;;;;;5027293;28;21164;-58
2022/06/20 08:30:25;;;;;;;5.67;3.10;;;;;;;;;;5026811;28;20200;-58
2022/06/20 08:32:54;;;;;;;7.70;3.50;;;;;;;;;;5030473;28;20192;-59
2022/06/20 08:35:23;;;;;;;8.88;3.75;;;;;;;;;;5032077;28;20250;-58
2022/06/20 08:37:51;;;;;;;7.07;3.83;;;;;;;;;;5030447;28;20271;-59
2022/06/20 08:40:23;;;;;;;5.80;4.10;;;;;;;;;;5032936;28;20207;-59
2022/06/20 08:43:06;;;;;;;8.05;4.28;;;;;;;;;;5031401;28;20318;-58
2022/06/20 08:45:38;;;;;;;6.85;4.22;;;;;;;;;;5033942;28;20456;-58
2022/06/20 08:48:08;;;;;;;6.90;4.55;;;;;;;;;;5032644;28;20203;-58
2022/06/20 08:50:37;;;;;;;5.23;3.80;;;;;;;;;;5032739;28;20185;-58
2022/06/20 08:53:26;;;;;;;6.13;4.28;;;;;;;;;;5030877;28;20654;-58
2022/06/20 08:56:00;;;;;;;8.73;4.75;;;;;;;;;;5031427;28;20220;-57
2022/06/20 08:58:35;;;;;;;9.05;4.65;;;;;;;;;;5023727;28;20200;-57
2022/06/20 09:01:03;;;;;;;6.03;4.45;;;;;;;;;;5029697;28;20184;-57
2022/06/20 09:03:29;;;;;;;5.75;4.18;;;;;;;;;;5028032;28;20849;-57
2022/06/20 09:06:01;;;;;;;7.60;4.30;;;;;;;;;;5028295;28;20264;-56
2022/06/20 09:08:32;;;;;;;6.53;4.90;;;;;;;;;;5027272;28;20470;-57
2022/06/20 09:11:18;;;;;;;6.95;4.63;;;;;;;;;;5026896;28;20184;-57
2022/06/20 09:13:59;;;;;;;5.50;4.10;;;;;;;;;;5025413;28;20196;-57
2022/06/20 09:16:25;;;;;;;10.00;6.45;;;;;;;;;;5021233;28;20191;-57
2022/06/20 09:19:07;;;;;;;8.82;7.30;;;;;;;;;;5018023;28;20649;-57
2022/06/20 09:21:33;;;;;;;12.18;7.20;;;;;;;;;;5019085;28;20835;-57
2022/06/20 09:24:08;;;;;;;11.38;7.30;;;;;;;;;;5017876;28;20256;-56
2022/06/20 09:26:35;;;;;;;11.60;7.77;;;;;;;;;;5014477;28;20192;-57
2022/06/20 09:29:04;;;;;;;8.88;6.03;;;;;;;;;;5015577;28;20208;-58
2022/06/20 09:31:49;;;;;;;6.50;5.50;;;;;;;;;;5014202;28;20196;-57
2022/06/20 09:34:34;;;;;;;9.05;5.82;;;;;;;;;;5028495;28;20604;-58
2022/06/20 09:37:08;;;;;;;6.65;4.80;;;;;;;;;;5023116;28;20201;-58
2022/06/20 09:39:53;;;;;;;8.57;5.25;;;;;;;;;;5028283;28;20728;-58
2022/06/20 09:42:22;;;;;;;6.45;3.95;;;;;;;;;;5028940;28;20302;-59
2022/06/20 09:44:51;;;;;;;5.63;4.40;;;;;;;;;;5032761;28;20187;-59
2022/06/20 09:47:24;;;;;;;6.07;4.03;;;;;;;;;;5030824;28;20673;-59
2022/06/20 09:49:56;;;;;;;5.47;3.45;;;;;;;;;;5026982;28;20235;-58
2022/06/20 09:52:25;;;;;;;5.75;3.90;;;;;;;;;;5030418;28;20198;-58
2022/06/20 09:55:03;;;;;;;8.88;3.90;;;;;;;;;;5030937;28;20641;-58
2022/06/20 09:57:30;;;;;;;5.72;3.60;;;;;;;;;;5028755;28;20180;-59
2022/06/20 10:00:00;;;;;;;3.88;3.33;;;;;;;;;;5030256;28;20263;-58
2022/06/20 10:02:38;;;;;;;5.45;3.40;;;;;;;;;;5033798;28;20240;-58
2022/06/20 10:05:23;;;;;;;4.00;2.95;;;;;;;;;;5031905;28;22412;-59
2022/06/20 10:07:52;;;;;;;4.72;2.92;;;;;;;;;;5031654;28;20188;-59
2022/06/20 10:10:18;;;;;;;5.35;3.03;;;;;;;;;;5031776;28;20215;-58
2022/06/20 10:12:47;;;;;;;3.20;2.70;;;;;;;;;;5033618;28;20196;-58
2022/06/20 10:15:13;;;;;;;4.05;2.67;;;;;;;;;;5028743;28;20243;-59
2022/06/20 10:17:58;;;;;;;3.80;2.47;;;;;;;;;;5028420;28;20696;-59
2022/06/20 10:20:23;;;;;;;4.47;2.90;;;;;;;;;;5037065;28;20177;-59
2022/06/20 10:22:56;;;;;;;3.20;2.40;;;;;;;;;;5032725;28;20212;-59
2022/06/20 10:25:28;;;;;;;2.92;2.40;;;;;;;;;;5033499;28;21071;-58
2022/06/20 10:28:13;;;;;;;4.63;2.65;;;;;;;;;;5033961;28;20616;-59
2022/06/20 10:30:39;;;;;;;4.22;2.30;;;;;;;;;;5033221;28;20188;-59
2022/06/20 10:33:05;;;;;;;4.00;2.95;;;;;;;;;;5031798;28;20239;-59
2022/06/20 10:35:49;;;;;;;3.75;2.50;;;;;;;;;;5032545;28;20181;-59
2022/06/20 10:38:34;;;;;;;4.20;2.65;;;;;;;;;;5034342;28;20714;-59
2022/06/20 10:41:10;;;;;;;6.88;2.78;;;;;;;;;;5032680;28;20189;-59
2022/06/20 10:43:36;;;;;;;4.03;2.78;;;;;;;;;;5028357;28;20237;-59
2022/06/20 10:46:12;;;;;;;2.65;2.40;;;;;;;;;;5034827;28;20185;-58
2022/06/20 10:48:38;;;;;;;2.60;2.38;;;;;;;;;;5031511;28;20309;-59
2022/06/20 10:51:23;;;;;;;4.60;2.60;;;;;;;;;;5035712;28;20183;-59
2022/06/20 10:53:49;;;;;;;3.55;1.95;;;;;;;;;;5033655;28;20196;-59
2022/06/20 10:56:22;;;;;;;4.65;2.53;;;;;;;;;;5032507;28;20188;-59
2022/06/20 10:58:52;;;;;;;3.03;2.50;;;;;;;;;;5033359;28;20180;-59
2022/06/20 11:01:20;;;;;;;3.67;2.33;;;;;;;;;;5032776;28;20185;-58
2022/06/20 11:03:46;;;;;;;3.40;2.60;;;;;;;;;;5032817;28;20287;-59
2022/06/20 11:06:21;;;;;;;3.03;2.38;;;;;;;;;;5030309;28;20203;-59
2022/06/20 11:08:50;;;;;;;3.15;2.50;;;;;;;;;;5033819;28;20514;-59
2022/06/20 11:11:32;;;;;;;2.50;2.28;;;;;;;;;;5029567;28;20201;-59
2022/06/20 11:13:57;;;;;;;3.50;1.83;;;;;;;;;;5031458;28;20203;-60
2022/06/20 11:16:26;;;;;;;3.53;2.10;;;;;;;;;;5032912;28;20193;-60
2022/06/20 11:18:52;;;;;;;3.03;2.20;;;;;;;;;;5034867;28;20192;-60
2022/06/20 11:21:18;;;;;;;2.10;1.80;;;;;;;;;;5017738;28;22233;-61
2022/06/20 11:23:48;;;;;;;2.28;1.50;;;;;;;;;;5007963;28;20898;-59
2022/06/20 11:26:15;;;;;;;3.10;1.95;;;;;;;;;;5007015;28;20177;-60
2022/06/20 11:29:00;;;;;;;3.40;1.88;;;;;;;;;;5028555;28;20561;-59
2022/06/20 11:31:30;;;;;;;3.45;2.08;;;;;;;;;;5028001;28;20677;-60
2022/06/20 11:34:02;;;;;;;3.53;2.25;;;;;;;;;;5023366;28;20219;-56
2022/06/20 11:36:40;;;;;;;4.03;2.10;;;;;;;;;;5022579;28;20212;-57
2022/06/20 11:39:09;;;;;;;4.28;2.28;;;;;;;;;;5021152;28;20199;-57
2022/06/20 11:41:36;;;;;;;5.97;2.53;;;;;;;;;;5014919;28;20191;-57
2022/06/20 11:44:11;;;;;;;2.50;2.20;;;;;;;;;;5029698;28;20741;-58
2022/06/20 11:46:41;;;;;;;3.03;2.33;;;;;;;;;;5014745;28;20204;-57
2022/06/20 11:49:07;;;;;;;2.33;2.13;;;;;;;;;;5023155;28;20264;-57
2022/06/20 11:51:43;;;;;;;3.85;2.10;;;;;;;;;;5028969;28;20193;-57
2022/06/20 11:54:15;;;;;;;3.35;2.35;;;;;;;;;;5033436;28;20184;-57
2022/06/20 11:56:49;;;;;;;3.33;2.30;;;;;;;;;;5029693;28;20733;-57
2022/06/20 11:59:20;;;;;;;6.45;2.65;;;;;;;;;;5031478;28;20193;-57
2022/06/20 12:01:46;;;;;;;2.83;2.55;;;;;;;;;;5029019;28;20176;-57
2022/06/20 12:04:16;;;;;;;2.92;2.25;;;;;;;;;;5032195;28;20216;-57
2022/06/20 12:06:46;;;;;;;4.05;2.40;;;;;;;;;;5031170;28;20223;-57
2022/06/20 12:09:17;;;;;;;4.72;3.20;;;;;;;;;;5028385;28;20181;-57
2022/06/20 12:11:46;;;;;;;3.08;2.28;;;;;;;;;;5028986;28;20181;-57
2022/06/20 12:14:12;;;;;;;4.90;2.30;;;;;;;;;;5028406;28;20192;-57
2022/06/20 12:16:43;;;;;;;3.53;2.33;;;;;;;;;;5028482;28;20243;-56
2022/06/20 12:24:52;;;;;;;3.63;2.33;;;;;;;;;;5031021;28;20297;-55
2022/06/20 12:27:19;;;;;;;5.13;2.30;;;;;;;;;;5027096;28;21048;-55
2022/06/20 12:29:45;;;;;;;4.10;2.13;;;;;;;;;;5029018;28;20188;-57
2022/06/20 12:32:13;;;;;;;4.05;2.53;;;;;;;;;;5030760;28;20191;-55
2022/06/20 12:34:43;;;;;;;3.08;2.13;;;;;;;;;;5030102;28;20232;-57
2022/06/20 12:37:15;;;;;;;4.65;2.50;;;;;;;;;;5028366;28;20189;-57
2022/06/20 12:39:52;;;;;;;3.30;2.05;;;;;;;;;;5031894;28;20566;-57
2022/06/20 12:42:28;;;;;;;6.38;2.30;;;;;;;;;;5030678;28;20224;-57
2022/06/20 12:45:12;;;;;;;3.25;2.05;;;;;;;;;;5036062;28;20636;-57
2022/06/20 12:47:38;;;;;;;4.75;2.22;;;;;;;;;;5029927;28;20695;-57
2022/06/20 12:50:43;;;;;;;3.72;2.10;;;;;;;;;;5031360;28;20185;-57
2022/06/20 12:53:12;;;;;;;3.90;2.50;;;;;;;;;;4977977;28;20190;-57
2022/06/20 12:55:57;;;;;;;4.35;2.50;;;;;;;;;;4993634;28;20247;-57
2022/06/20 12:58:25;;;;;;;3.67;2.25;;;;;;;;;;5016230;28;20728;-57
2022/06/20 13:00:52;;;;;;;3.42;2.25;;;;;;;;;;5030034;28;20263;-57
2022/06/20 13:03:27;;;;;;;5.50;2.25;;;;;;;;;;5030009;28;20236;-57
2022/06/20 13:06:06;;;;;;;3.03;2.13;;;;;;;;;;5028631;28;20262;-57
2022/06/20 13:08:44;;;;;;;2.13;1.92;;;;;;;;;;5031124;28;20196;-56
2022/06/20 13:11:29;;;;;;;3.40;2.08;;;;;;;;;;5033312;28;20177;-57
2022/06/20 13:14:11;;;;;;;6.28;2.33;;;;;;;;;;5030645;28;20196;-57
2022/06/20 13:16:41;;;;;;;2.88;2.10;;;;;;;;;;5028835;28;20234;-57
2022/06/20 13:19:20;;;;;;;4.60;2.20;;;;;;;;;;5026626;28;20192;-57
2022/06/20 13:21:47;;;;;;;5.40;2.28;;;;;;;;;;5034315;28;20188;-57
2022/06/20 13:24:20;;;;;;;2.95;2.00;;;;;;;;;;5033657;28;20246;-57
2022/06/20 13:27:05;;;;;;;3.35;2.42;;;;;;;;;;5030657;28;20701;-57
2022/06/20 13:29:36;;;;;;;4.35;2.40;;;;;;;;;;5032281;28;20188;-57
2022/06/20 13:32:11;;;;;;;3.95;2.20;;;;;;;;;;5030153;28;20185;-57
2022/06/20 13:34:46;;;;;;;4.22;2.33;;;;;;;;;;5028193;28;20680;-57
2022/06/20 13:37:30;;;;;;;5.80;2.55;;;;;;;;;;5030188;28;20185;-57
2022/06/20 13:39:58;;;;;;;3.33;2.35;;;;;;;;;;5028519;28;20570;-57
2022/06/20 13:42:24;;;;;;;4.60;2.55;;;;;;;;;;5029372;28;21300;-56
2022/06/20 13:45:00;;;;;;;3.88;2.55;;;;;;;;;;5029903;28;20560;-57
2022/06/20 13:47:29;;;;;;;4.32;3.00;;;;;;;;;;5031751;28;20191;-57
2022/06/20 13:50:05;;;;;;;3.08;2.67;;;;;;;;;;5033722;28;20180;-57
2022/06/20 13:52:33;;;;;;;2.83;2.50;;;;;;;;;;5026789;28;20183;-57
2022/06/20 13:55:01;;;;;;;3.65;2.78;;;;;;;;;;5031065;28;20842;-55
2022/06/20 13:57:46;;;;;;;5.00;3.08;;;;;;;;;;5024701;28;20227;-57
2022/06/20 14:00:18;;;;;;;5.68;3.95;;;;;;;;;;5025118;28;20794;-55
2022/06/20 14:02:44;;;;;;;3.03;2.70;;;;;;;;;;5026601;28;20201;-57
2022/06/20 14:05:18;;;;;;;3.78;2.75;;;;;;;;;;5023997;28;20708;-56
2022/06/20 14:07:45;;;;;;;3.45;2.72;;;;;;;;;;5015038;28;20252;-56
2022/06/20 14:10:21;;;;;;;4.63;3.35;;;;;;;;;;5031613;28;20212;-56
2022/06/20 14:12:49;;;;;;;3.08;2.78;;;;;;;;;;5029700;28;20199;-56
2022/06/20 14:15:19;;;;;;;4.22;3.00;;;;;;;;;;5028977;28;20303;-55
2022/06/20 14:17:50;;;;;;;7.10;2.95;;;;;;;;;;5031552;28;20183;-55
2022/06/20 14:20:24;;;;;;;5.13;3.75;;;;;;;;;;5029000;28;20206;-55
2022/06/20 14:22:50;;;;;;;3.40;2.92;;;;;;;;;;5028957;28;20258;-57
2022/06/20 14:25:31;;;;;;;6.78;2.70;;;;;;;;;;5027228;28;20327;-56
2022/06/20 14:27:57;;;;;;;3.08;2.67;;;;;;;;;;5030102;28;20296;-56
2022/06/20 14:30:28;;;;;;;6.18;3.17;;;;;;;;;;5028796;28;20183;-56
2022/06/20 14:33:12;;;;;;;5.43;3.00;;;;;;;;;;5033927;28;20177;-56
2022/06/20 14:36:02;;;;;;;5.63;3.10;;;;;;;;;;5029412;28;20661;-56
2022/06/20 14:38:33;;;;;;;6.45;3.20;;;;;;;;;;5022965;28;20257;-55
2022/06/20 14:41:03;;;;;;;4.43;3.00;;;;;;;;;;5024174;28;20195;-55
2022/06/20 14:43:29;;;;;;;3.70;2.92;;;;;;;;;;5024623;28;20259;-54
2022/06/20 14:46:04;;;;;;;4.40;2.85;;;;;;;;;;5021389;28;20662;-55
2022/06/20 14:48:31;;;;;;;5.20;3.33;;;;;;;;;;5028054;28;20191;-55
2022/06/20 14:51:01;;;;;;;6.75;3.30;;;;;;;;;;5034200;28;20265;-56
2022/06/20 14:53:45;;;;;;;4.13;2.92;;;;;;;;;;5032727;28;20688;-57
2022/06/20 14:56:15;;;;;;;5.35;2.70;;;;;;;;;;5029533;28;20280;-56
2022/06/20 14:58:44;;;;;;;6.60;3.15;;;;;;;;;;5023138;28;21011;-54
2022/06/20 15:01:16;;;;;;;3.70;2.80;;;;;;;;;;5016091;28;20264;-55
2022/06/20 15:03:56;;;;;;;4.75;3.10;;;;;;;;;;5015399;28;20208;-54
2022/06/20 15:06:23;;;;;;;3.53;2.90;;;;;;;;;;5018568;28;20555;-55
2022/06/20 15:08:52;;;;;;;4.07;2.90;;;;;;;;;;5028833;28;20268;-55
2022/06/20 15:11:25;;;;;;;4.80;3.08;;;;;;;;;;5028251;28;20226;-57
2022/06/20 15:13:57;;;;;;;4.20;2.85;;;;;;;;;;5023319;28;20626;-56
2022/06/20 15:16:26;;;;;;;5.47;2.83;;;;;;;;;;5023605;28;20508;-56